sensor_id;sensor_type;location;lat;lon;timestamp;P1;P2;P0
80289;PMS7003;69592;44.804;-0.550;2023-05-16T00:00:06;2.00;1.50;1.25
80289;PMS7003;69592;44.804;-0.550;2023-05-16T00:02:33;2.50;2.50;2.00
80289;PMS7003;69592;44.804;-0.550;2023-05-16T00:05:00;2.75;2.75;2.00
80289;PMS7003;69592;44.804;-0.550;2023-05-16T00:07:26;3.00;2.00;2.00
80289;PMS7003;69592;44.804;-0.550;2023-05-16T00:09:51;2.00;2.00;1.00
80289;PMS7003;69592;44.804;-0.550;2023-05-16T00:12:17;3.25;2.75;2.25
80289;PMS7003;69592;44.804;-0.550;2023-05-16T00:14:43;3.50;2.50;1.75
80289;PMS7003;69592;44.804;-0.550;2023-05-16T00:17:09;3.00;3.00;2.00
80289;PMS7003;69592;44.804;-0.550;2023-05-16T00:19:38;2.00;2.00;1.50
80289;PMS7003;69592;44.804;-0.550;2023-05-16T00:22:04;5.00;2.25;2.00
80289;PMS7003;69592;44.804;-0.550;2023-05-16T00:24:30;2.00;2.00;2.00
80289;PMS7003;69592;44.804;-0.550;2023-05-16T00:26:57;3.00;3.00;2.75
80289;PMS7003;69592;44.804;-0.550;2023-05-16T00:29:25;3.50;2.00;2.00
80289;PMS7003;69592;44.804;-0.550;2023-05-16T00:31:50;3.00;3.00;2.00
80289;PMS7003;69592;44.804;-0.550;2023-05-16T00:34:16;3.00;3.00;2.25
80289;PMS7003;69592;44.804;-0.550;2023-05-16T00:36:41;2.75;2.75;2.00
80289;PMS7003;69592;44.804;-0.550;2023-05-16T00:39:07;4.00;4.00;2.25
80289;PMS7003;69592;44.804;-0.550;2023-05-16T00:41:35;2.25;1.25;1.00
80289;PMS7003;69592;44.804;-0.550;2023-05-16T00:44:00;4.00;4.00;3.00
80289;PMS7003;69592;44.804;-0.550;2023-05-16T00:46:26;4.00;4.00;3.00
80289;PMS7003;69592;44.804;-0.550;2023-05-16T00:48:51;6.25;3.00;2.00
80289;PMS7003;69592;44.804;-0.550;2023-05-16T00:51:17;3.00;3.00;3.00
80289;PMS7003;69592;44.804;-0.550;2023-05-16T00:53:43;4.00;4.00;3.00
80289;PMS7003;69592;44.804;-0.550;2023-05-16T00:56:08;3.25;2.50;2.25
80289;PMS7003;69592;44.804;-0.550;2023-05-16T00:58:34;6.50;5.00;3.00
80289;PMS7003;69592;44.804;-0.550;2023-05-16T01:01:01;4.00;4.00;3.00
80289;PMS7003;69592;44.804;-0.550;2023-05-16T01:03:28;3.00;3.00;2.00
80289;PMS7003;69592;44.804;-0.550;2023-05-16T01:05:53;6.50;5.00;3.75
80289;PMS7003;69592;44.804;-0.550;2023-05-16T01:08:19;2.00;2.00;2.00
80289;PMS7003;69592;44.804;-0.550;2023-05-16T01:10:52;7.25;4.50;3.50
80289;PMS7003;69592;44.804;-0.550;2023-05-16T01:19:13;7.75;5.50;4.00
80289;PMS7003;69592;44.804;-0.550;2023-05-16T01:22:08;8.50;6.75;3.00
80289;PMS7003;69592;44.804;-0.550;2023-05-16T01:24:51;7.75;7.75;5.50
80289;PMS7003;69592;44.804;-0.550;2023-05-16T01:27:29;4.00;3.25;3.00
80289;PMS7003;69592;44.804;-0.550;2023-05-16T01:29:55;6.75;6.75;6.00
80289;PMS7003;69592;44.804;-0.550;2023-05-16T01:32:21;4.00;4.00;3.00
80289;PMS7003;69592;44.804;-0.550;2023-05-16T01:34:47;7.75;7.00;6.00
80289;PMS7003;69592;44.804;-0.550;2023-05-16T01:37:18;8.50;7.25;5.00
80289;PMS7003;69592;44.804;-0.550;2023-05-16T01:40:11;8.00;6.50;5.75
80289;PMS7003;69592;44.804;-0.550;2023-05-16T01:42:38;6.00;6.00;3.75
80289;PMS7003;69592;44.804;-0.550;2023-05-16T01:45:17;7.75;7.75;4.00
80289;PMS7003;69592;44.804;-0.550;2023-05-16T01:47:51;9.00;9.00;6.00
80289;PMS7003;69592;44.804;-0.550;2023-05-16T01:50:24;12.75;9.25;6.75
80289;PMS7003;69592;44.804;-0.550;2023-05-16T01:53:07;7.75;7.75;6.25
80289;PMS7003;69592;44.804;-0.550;2023-05-16T01:55:50;8.00;8.00;7.00
80289;PMS7003;69592;44.804;-0.550;2023-05-16T01:58:17;8.50;7.50;6.00
80289;PMS7003;69592;44.804;-0.550;2023-05-16T02:00:45;11.00;8.75;6.75
80289;PMS7003;69592;44.804;-0.550;2023-05-16T02:03:11;7.50;7.00;6.00
80289;PMS7003;69592;44.804;-0.550;2023-05-16T02:05:36;7.50;7.25;6.00
80289;PMS7003;69592;44.804;-0.550;2023-05-16T02:08:02;8.25;6.00;3.50
80289;PMS7003;69592;44.804;-0.550;2023-05-16T02:10:28;9.00;8.00;6.00
80289;PMS7003;69592;44.804;-0.550;2023-05-16T02:12:53;5.00;5.00;4.00
80289;PMS7003;69592;44.804;-0.550;2023-05-16T02:15:19;7.00;6.00;4.00
80289;PMS7003;69592;44.804;-0.550;2023-05-16T02:17:45;3.50;3.50;3.00
80289;PMS7003;69592;44.804;-0.550;2023-05-16T02:20:11;6.00;6.00;3.50
80289;PMS7003;69592;44.804;-0.550;2023-05-16T02:22:37;6.00;6.00;4.00
80289;PMS7003;69592;44.804;-0.550;2023-05-16T02:25:03;7.25;7.25;4.00
80289;PMS7003;69592;44.804;-0.550;2023-05-16T02:27:29;7.00;7.00;4.00
80289;PMS7003;69592;44.804;-0.550;2023-05-16T02:29:55;5.00;5.00;3.00
80289;PMS7003;69592;44.804;-0.550;2023-05-16T02:32:20;5.00;5.00;4.00
80289;PMS7003;69592;44.804;-0.550;2023-05-16T02:34:46;8.00;7.00;6.00
80289;PMS7003;69592;44.804;-0.550;2023-05-16T02:37:11;5.75;5.75;4.00
80289;PMS7003;69592;44.804;-0.550;2023-05-16T02:39:36;7.75;5.00;3.00
80289;PMS7003;69592;44.804;-0.550;2023-05-16T02:42:02;3.00;3.00;2.00
80289;PMS7003;69592;44.804;-0.550;2023-05-16T02:44:28;3.00;3.00;2.00
80289;PMS7003;69592;44.804;-0.550;2023-05-16T02:46:53;6.25;6.25;3.25
80289;PMS7003;69592;44.804;-0.550;2023-05-16T02:49:19;8.50;6.00;3.25
80289;PMS7003;69592;44.804;-0.550;2023-05-16T02:51:44;6.00;6.00;4.00
80289;PMS7003;69592;44.804;-0.550;2023-05-16T02:54:11;6.75;4.50;3.00
80289;PMS7003;69592;44.804;-0.550;2023-05-16T02:56:36;6.00;6.00;4.00
80289;PMS7003;69592;44.804;-0.550;2023-05-16T02:59:02;7.00;6.50;4.00
80289;PMS7003;69592;44.804;-0.550;2023-05-16T03:01:28;6.00;6.00;3.25
80289;PMS7003;69592;44.804;-0.550;2023-05-16T03:03:53;8.00;7.50;5.50
80289;PMS7003;69592;44.804;-0.550;2023-05-16T03:06:19;7.50;6.75;6.00
80289;PMS7003;69592;44.804;-0.550;2023-05-16T03:08:44;6.75;6.75;4.25
80289;PMS7003;69592;44.804;-0.550;2023-05-16T03:11:11;3.25;3.00;3.00
80289;PMS7003;69592;44.804;-0.550;2023-05-16T03:13:36;7.00;7.00;4.50
80289;PMS7003;69592;44.804;-0.550;2023-05-16T03:16:02;7.00;7.00;6.00
80289;PMS7003;69592;44.804;-0.550;2023-05-16T03:18:28;8.75;7.25;6.75
80289;PMS7003;69592;44.804;-0.550;2023-05-16T03:20:54;8.00;6.00;5.25
80289;PMS7003;69592;44.804;-0.550;2023-05-16T03:23:20;10.50;6.00;5.00
80289;PMS7003;69592;44.804;-0.550;2023-05-16T03:25:46;6.75;6.75;6.00
80289;PMS7003;69592;44.804;-0.550;2023-05-16T03:28:11;6.75;6.00;4.75
80289;PMS7003;69592;44.804;-0.550;2023-05-16T03:30:37;5.25;4.25;2.75
80289;PMS7003;69592;44.804;-0.550;2023-05-16T03:33:02;3.25;2.50;2.00
80289;PMS7003;69592;44.804;-0.550;2023-05-16T03:35:28;6.75;6.75;5.00
80289;PMS7003;69592;44.804;-0.550;2023-05-16T03:37:55;5.75;5.75;5.25
80289;PMS7003;69592;44.804;-0.550;2023-05-16T03:40:21;6.50;6.50;5.00
80289;PMS7003;69592;44.804;-0.550;2023-05-16T03:42:46;6.00;6.00;5.00
80289;PMS7003;69592;44.804;-0.550;2023-05-16T03:45:11;6.50;5.50;3.25
80289;PMS7003;69592;44.804;-0.550;2023-05-16T03:47:37;5.00;5.00;3.00
80289;PMS7003;69592;44.804;-0.550;2023-05-16T03:50:03;8.50;5.75;3.00
80289;PMS7003;69592;44.804;-0.550;2023-05-16T03:52:29;5.00;5.00;2.75
80289;PMS7003;69592;44.804;-0.550;2023-05-16T03:54:55;5.00;5.00;3.00
80289;PMS7003;69592;44.804;-0.550;2023-05-16T03:57:20;2.25;2.25;2.00
80289;PMS7003;69592;44.804;-0.550;2023-05-16T03:59:46;4.00;3.00;2.00
80289;PMS7003;69592;44.804;-0.550;2023-05-16T04:02:12;6.00;6.00;3.00
80289;PMS7003;69592;44.804;-0.550;2023-05-16T04:04:37;6.75;4.50;2.25
80289;PMS7003;69592;44.804;-0.550;2023-05-16T04:07:03;5.75;4.00;2.50
80289;PMS7003;69592;44.804;-0.550;2023-05-16T04:09:28;3.50;3.50;2.00
80289;PMS7003;69592;44.804;-0.550;2023-05-16T04:11:54;2.00;2.00;2.00
80289;PMS7003;69592;44.804;-0.550;2023-05-16T04:14:21;5.25;5.00;3.00
80289;PMS7003;69592;44.804;-0.550;2023-05-16T04:16:48;2.25;2.00;1.50
80289;PMS7003;69592;44.804;-0.550;2023-05-16T04:19:13;3.00;3.00;3.00
80289;PMS7003;69592;44.804;-0.550;2023-05-16T04:21:38;5.75;5.75;5.00
80289;PMS7003;69592;44.804;-0.550;2023-05-16T04:24:04;3.00;3.00;2.25
80289;PMS7003;69592;44.804;-0.550;2023-05-16T04:26:30;4.25;3.50;3.00
80289;PMS7003;69592;44.804;-0.550;2023-05-16T04:28:55;2.50;0.75;0.50
80289;PMS7003;69592;44.804;-0.550;2023-05-16T04:31:24;3.00;3.00;2.00
80289;PMS7003;69592;44.804;-0.550;2023-05-16T04:33:49;5.50;3.00;2.00
80289;PMS7003;69592;44.804;-0.550;2023-05-16T04:36:15;4.25;3.00;2.00
80289;PMS7003;69592;44.804;-0.550;2023-05-16T04:38:40;2.50;2.50;2.00
80289;PMS7003;69592;44.804;-0.550;2023-05-16T04:41:06;1.50;1.50;1.50
80289;PMS7003;69592;44.804;-0.550;2023-05-16T04:43:32;2.00;2.00;1.50
80289;PMS7003;69592;44.804;-0.550;2023-05-16T04:45:57;3.00;3.00;3.00
80289;PMS7003;69592;44.804;-0.550;2023-05-16T04:48:23;2.00;2.00;1.75
80289;PMS7003;69592;44.804;-0.550;2023-05-16T04:50:49;4.50;4.50;2.00
80289;PMS7003;69592;44.804;-0.550;2023-05-16T04:53:15;2.75;2.75;2.00
80289;PMS7003;69592;44.804;-0.550;2023-05-16T04:55:40;2.00;2.00;1.75
80289;PMS7003;69592;44.804;-0.550;2023-05-16T04:58:06;3.00;3.00;2.00
80289;PMS7003;69592;44.804;-0.550;2023-05-16T05:00:32;1.25;1.25;1.00
80289;PMS7003;69592;44.804;-0.550;2023-05-16T05:02:57;2.00;2.00;1.50
80289;PMS7003;69592;44.804;-0.550;2023-05-16T05:05:23;1.75;1.75;1.50
80289;PMS7003;69592;44.804;-0.550;2023-05-16T05:07:48;3.50;2.00;1.00
80289;PMS7003;69592;44.804;-0.550;2023-05-16T05:10:13;0.00;0.00;0.00
80289;PMS7003;69592;44.804;-0.550;2023-05-16T05:12:39;2.00;2.00;1.50
80289;PMS7003;69592;44.804;-0.550;2023-05-16T05:15:04;4.00;2.00;1.00
80289;PMS7003;69592;44.804;-0.550;2023-05-16T05:17:31;2.00;2.00;1.75
80289;PMS7003;69592;44.804;-0.550;2023-05-16T05:19:57;2.00;2.00;2.00
80289;PMS7003;69592;44.804;-0.550;2023-05-16T05:22:22;2.00;2.00;1.00
80289;PMS7003;69592;44.804;-0.550;2023-05-16T05:24:48;2.00;2.00;1.50
80289;PMS7003;69592;44.804;-0.550;2023-05-16T05:27:13;5.00;2.75;2.00
80289;PMS7003;69592;44.804;-0.550;2023-05-16T05:29:39;2.50;1.50;1.00
80289;PMS7003;69592;44.804;-0.550;2023-05-16T05:32:05;1.50;1.50;1.00
80289;PMS7003;69592;44.804;-0.550;2023-05-16T05:34:30;2.25;1.25;1.00
80289;PMS7003;69592;44.804;-0.550;2023-05-16T05:36:56;1.25;1.25;1.00
80289;PMS7003;69592;44.804;-0.550;2023-05-16T05:39:23;1.00;1.00;1.00
80289;PMS7003;69592;44.804;-0.550;2023-05-16T05:41:48;2.00;2.00;2.00
80289;PMS7003;69592;44.804;-0.550;2023-05-16T05:44:14;2.75;2.75;2.00
80289;PMS7003;69592;44.804;-0.550;2023-05-16T05:46:39;5.00;2.00;2.00
80289;PMS7003;69592;44.804;-0.550;2023-05-16T05:49:05;3.00;3.00;2.25
80289;PMS7003;69592;44.804;-0.550;2023-05-16T05:51:30;2.00;2.00;1.75
80289;PMS7003;69592;44.804;-0.550;2023-05-16T05:53:56;3.00;3.00;2.50
80289;PMS7003;69592;44.804;-0.550;2023-05-16T05:56:22;3.00;3.00;2.50
80289;PMS7003;69592;44.804;-0.550;2023-05-16T05:58:49;3.00;3.00;3.00
80289;PMS7003;69592;44.804;-0.550;2023-05-16T06:01:15;1.25;1.25;1.00
80289;PMS7003;69592;44.804;-0.550;2023-05-16T06:03:40;3.25;3.25;2.50
80289;PMS7003;69592;44.804;-0.550;2023-05-16T06:06:06;3.00;3.00;2.00
80289;PMS7003;69592;44.804;-0.550;2023-05-16T06:08:32;2.75;2.25;2.00
80289;PMS7003;69592;44.804;-0.550;2023-05-16T06:10:58;5.50;3.00;2.25
80289;PMS7003;69592;44.804;-0.550;2023-05-16T06:13:24;3.00;3.00;2.00
80289;PMS7003;69592;44.804;-0.550;2023-05-16T06:15:53;2.50;2.50;2.25
80289;PMS7003;69592;44.804;-0.550;2023-05-16T06:18:19;4.75;4.00;2.00
80289;PMS7003;69592;44.804;-0.550;2023-05-16T06:20:44;3.50;2.25;2.25
80289;PMS7003;69592;44.804;-0.550;2023-05-16T06:23:12;6.75;3.00;2.00
80289;PMS7003;69592;44.804;-0.550;2023-05-16T06:25:38;3.00;3.00;2.00
80289;PMS7003;69592;44.804;-0.550;2023-05-16T06:28:04;1.00;1.00;1.00
80289;PMS7003;69592;44.804;-0.550;2023-05-16T06:30:29;1.00;0.00;0.00
80289;PMS7003;69592;44.804;-0.550;2023-05-16T06:32:55;5.75;3.50;2.00
80289;PMS7003;69592;44.804;-0.550;2023-05-16T06:35:20;4.50;2.00;2.00
80289;PMS7003;69592;44.804;-0.550;2023-05-16T06:37:46;3.00;3.00;2.00
80289;PMS7003;69592;44.804;-0.550;2023-05-16T06:40:11;6.25;5.25;3.50
80289;PMS7003;69592;44.804;-0.550;2023-05-16T06:42:37;1.25;0.25;0.00
80289;PMS7003;69592;44.804;-0.550;2023-05-16T06:45:03;3.00;3.00;3.00
80289;PMS7003;69592;44.804;-0.550;2023-05-16T06:47:29;1.75;1.75;1.00
80289;PMS7003;69592;44.804;-0.550;2023-05-16T06:49:54;5.00;3.00;2.00
80289;PMS7003;69592;44.804;-0.550;2023-05-16T06:52:20;3.50;3.50;2.50
80289;PMS7003;69592;44.804;-0.550;2023-05-16T06:54:45;5.25;4.25;3.00
80289;PMS7003;69592;44.804;-0.550;2023-05-16T06:57:11;3.50;3.00;2.00
80289;PMS7003;69592;44.804;-0.550;2023-05-16T06:59:37;3.50;3.00;2.25
80289;PMS7003;69592;44.804;-0.550;2023-05-16T07:02:03;5.50;3.75;3.00
80289;PMS7003;69592;44.804;-0.550;2023-05-16T07:04:29;5.25;4.50;3.00
80289;PMS7003;69592;44.804;-0.550;2023-05-16T07:06:54;7.50;5.50;3.00
80289;PMS7003;69592;44.804;-0.550;2023-05-16T07:09:20;6.00;3.00;2.00
80289;PMS7003;69592;44.804;-0.550;2023-05-16T07:11:48;4.25;4.25;3.00
80289;PMS7003;69592;44.804;-0.550;2023-05-16T07:14:16;3.75;3.75;2.50
80289;PMS7003;69592;44.804;-0.550;2023-05-16T07:16:46;7.75;4.75;3.00
80289;PMS7003;69592;44.804;-0.550;2023-05-16T07:19:47;5.75;3.00;3.00
80289;PMS7003;69592;44.804;-0.550;2023-05-16T07:23:09;6.75;5.75;5.00
80289;PMS7003;69592;44.804;-0.550;2023-05-16T07:25:42;3.00;3.00;2.50
80289;PMS7003;69592;44.804;-0.550;2023-05-16T07:31:21;3.25;3.25;2.50
80289;PMS7003;69592;44.804;-0.550;2023-05-16T07:33:48;6.00;4.00;2.75
80289;PMS7003;69592;44.804;-0.550;2023-05-16T07:36:18;4.75;4.75;3.00
80289;PMS7003;69592;44.804;-0.550;2023-05-16T07:38:44;4.00;4.00;2.75
80289;PMS7003;69592;44.804;-0.550;2023-05-16T07:41:11;6.00;5.00;3.00
80289;PMS7003;69592;44.804;-0.550;2023-05-16T07:43:39;4.50;4.50;3.00
80289;PMS7003;69592;44.804;-0.550;2023-05-16T07:46:06;6.00;6.00;4.50
80289;PMS7003;69592;44.804;-0.550;2023-05-16T07:48:31;5.50;3.25;1.75
80289;PMS7003;69592;44.804;-0.550;2023-05-16T07:50:58;7.00;7.00;4.00
80289;PMS7003;69592;44.804;-0.550;2023-05-16T07:53:23;4.00;4.00;2.50
80289;PMS7003;69592;44.804;-0.550;2023-05-16T07:55:49;2.75;2.50;2.00
80289;PMS7003;69592;44.804;-0.550;2023-05-16T07:58:14;4.50;4.50;4.25
80289;PMS7003;69592;44.804;-0.550;2023-05-16T08:00:41;4.50;3.00;2.00
80289;PMS7003;69592;44.804;-0.550;2023-05-16T08:03:08;2.25;2.25;1.25
80289;PMS7003;69592;44.804;-0.550;2023-05-16T08:05:40;2.00;2.00;2.00
80289;PMS7003;69592;44.804;-0.550;2023-05-16T08:08:12;2.00;2.00;1.50
80289;PMS7003;69592;44.804;-0.550;2023-05-16T08:10:41;2.00;2.00;1.50
80289;PMS7003;69592;44.804;-0.550;2023-05-16T08:13:06;1.75;1.75;1.75
80289;PMS7003;69592;44.804;-0.550;2023-05-16T08:15:33;4.50;2.50;2.00
80289;PMS7003;69592;44.804;-0.550;2023-05-16T08:18:00;2.25;1.25;1.00
80289;PMS7003;69592;44.804;-0.550;2023-05-16T08:20:26;3.00;3.00;2.00
80289;PMS7003;69592;44.804;-0.550;2023-05-16T08:22:53;2.25;2.25;1.75
80289;PMS7003;69592;44.804;-0.550;2023-05-16T08:25:21;2.00;2.00;1.75
80289;PMS7003;69592;44.804;-0.550;2023-05-16T08:27:56;2.00;2.00;2.00
80289;PMS7003;69592;44.804;-0.550;2023-05-16T08:33:07;1.75;1.00;1.00
80289;PMS7003;69592;44.804;-0.550;2023-05-16T08:35:34;2.00;1.00;1.00
80289;PMS7003;69592;44.804;-0.550;2023-05-16T08:38:02;1.67;1.67;1.33
80289;PMS7003;69592;44.804;-0.550;2023-05-16T08:40:46;1.67;1.67;1.00
80289;PMS7003;69592;44.804;-0.550;2023-05-16T08:43:12;2.00;2.00;2.00
80289;PMS7003;69592;44.804;-0.550;2023-05-16T08:45:39;2.00;2.00;2.00
80289;PMS7003;69592;44.804;-0.550;2023-05-16T08:48:09;1.00;1.00;1.00
80289;PMS7003;69592;44.804;-0.550;2023-05-16T08:50:39;4.00;3.00;2.00
80289;PMS7003;69592;44.804;-0.550;2023-05-16T08:53:10;3.00;2.00;2.00
80289;PMS7003;69592;44.804;-0.550;2023-05-16T08:59:04;0.67;0.67;0.67
80289;PMS7003;69592;44.804;-0.550;2023-05-16T09:01:30;2.00;2.00;2.00
80289;PMS7003;69592;44.804;-0.550;2023-05-16T09:03:58;2.33;1.00;1.00
80289;PMS7003;69592;44.804;-0.550;2023-05-16T09:06:29;2.33;2.00;1.33
80289;PMS7003;69592;44.804;-0.550;2023-05-16T09:08:54;1.00;1.00;1.00
80289;PMS7003;69592;44.804;-0.550;2023-05-16T09:11:20;1.00;1.00;1.00
80289;PMS7003;69592;44.804;-0.550;2023-05-16T09:13:46;2.00;2.00;1.00
80289;PMS7003;69592;44.804;-0.550;2023-05-16T09:16:17;0.67;0.00;0.00
80289;PMS7003;69592;44.804;-0.550;2023-05-16T09:18:51;2.67;2.00;1.00
80289;PMS7003;69592;44.804;-0.550;2023-05-16T09:21:22;1.00;1.00;1.00
80289;PMS7003;69592;44.804;-0.550;2023-05-16T09:23:53;2.33;2.00;1.00
80289;PMS7003;69592;44.804;-0.550;2023-05-16T09:26:19;2.00;2.00;2.00
80289;PMS7003;69592;44.804;-0.550;2023-05-16T09:28:46;3.00;1.00;1.00
80289;PMS7003;69592;44.804;-0.550;2023-05-16T09:31:23;2.00;1.00;1.00
80289;PMS7003;69592;44.804;-0.550;2023-05-16T09:33:57;1.67;1.00;0.33
80289;PMS7003;69592;44.804;-0.550;2023-05-16T09:36:24;1.00;0.00;0.00
80289;PMS7003;69592;44.804;-0.550;2023-05-16T09:38:51;2.00;1.00;1.00
80289;PMS7003;69592;44.804;-0.550;2023-05-16T09:41:17;0.00;0.00;0.00
80289;PMS7003;69592;44.804;-0.550;2023-05-16T09:43:45;2.00;2.00;1.33
80289;PMS7003;69592;44.804;-0.550;2023-05-16T09:46:13;1.00;1.00;1.00
80289;PMS7003;69592;44.804;-0.550;2023-05-16T09:48:44;3.00;3.00;2.00
80289;PMS7003;69592;44.804;-0.550;2023-05-16T09:51:11;0.00;0.00;0.00
80289;PMS7003;69592;44.804;-0.550;2023-05-16T09:53:37;1.00;1.00;1.00
80289;PMS7003;69592;44.804;-0.550;2023-05-16T09:56:05;2.00;2.00;1.00
80289;PMS7003;69592;44.804;-0.550;2023-05-16T09:58:34;2.00;2.00;1.00
80289;PMS7003;69592;44.804;-0.550;2023-05-16T10:01:02;3.00;2.00;1.33
80289;PMS7003;69592;44.804;-0.550;2023-05-16T10:03:28;3.33;1.33;1.00
80289;PMS7003;69592;44.804;-0.550;2023-05-16T10:05:55;1.33;1.33;1.00
80289;PMS7003;69592;44.804;-0.550;2023-05-16T10:08:25;1.67;1.00;1.00
80289;PMS7003;69592;44.804;-0.550;2023-05-16T10:11:05;2.33;1.00;1.00
80289;PMS7003;69592;44.804;-0.550;2023-05-16T10:13:40;1.00;1.00;1.00
80289;PMS7003;69592;44.804;-0.550;2023-05-16T10:16:09;1.67;1.67;1.33
80289;PMS7003;69592;44.804;-0.550;2023-05-16T10:18:37;2.00;2.00;2.00
80289;PMS7003;69592;44.804;-0.550;2023-05-16T10:21:12;1.67;1.00;1.00
80289;PMS7003;69592;44.804;-0.550;2023-05-16T10:23:46;1.00;1.00;1.00
80289;PMS7003;69592;44.804;-0.550;2023-05-16T10:26:34;1.67;1.67;1.67
80289;PMS7003;69592;44.804;-0.550;2023-05-16T10:29:01;1.00;1.00;1.00
80289;PMS7003;69592;44.804;-0.550;2023-05-16T10:31:27;1.00;1.00;0.33
80289;PMS7003;69592;44.804;-0.550;2023-05-16T10:33:53;1.00;1.00;0.33
80289;PMS7003;69592;44.804;-0.550;2023-05-16T10:36:23;2.00;2.00;1.00
80289;PMS7003;69592;44.804;-0.550;2023-05-16T10:38:49;2.33;1.00;0.67
80289;PMS7003;69592;44.804;-0.550;2023-05-16T10:41:15;1.00;1.00;1.00
80289;PMS7003;69592;44.804;-0.550;2023-05-16T10:43:43;2.00;2.00;1.00
80289;PMS7003;69592;44.804;-0.550;2023-05-16T10:46:19;1.00;1.00;1.00
80289;PMS7003;69592;44.804;-0.550;2023-05-16T10:48:48;2.00;1.00;1.00
80289;PMS7003;69592;44.804;-0.550;2023-05-16T10:51:32;1.00;1.00;1.00
80289;PMS7003;69592;44.804;-0.550;2023-05-16T10:54:06;1.00;0.00;0.00
80289;PMS7003;69592;44.804;-0.550;2023-05-16T10:56:34;1.00;1.00;1.00
80289;PMS7003;69592;44.804;-0.550;2023-05-16T10:59:01;1.00;1.00;1.00
80289;PMS7003;69592;44.804;-0.550;2023-05-16T11:01:34;3.00;0.33;0.33
80289;PMS7003;69592;44.804;-0.550;2023-05-16T11:04:05;2.00;2.00;1.00
80289;PMS7003;69592;44.804;-0.550;2023-05-16T11:16:50;1.67;1.00;0.33
80289;PMS7003;69592;44.804;-0.550;2023-05-16T11:19:29;0.00;0.00;0.00
80289;PMS7003;69592;44.804;-0.550;2023-05-16T11:35:37;1.00;1.00;1.00
80289;PMS7003;69592;44.804;-0.550;2023-05-16T11:38:14;2.00;2.00;1.00
80289;PMS7003;69592;44.804;-0.550;2023-05-16T11:40:42;1.33;1.33;1.00
80289;PMS7003;69592;44.804;-0.550;2023-05-16T11:43:08;1.00;1.00;1.00
80289;PMS7003;69592;44.804;-0.550;2023-05-16T11:45:58;1.00;1.00;1.00
80289;PMS7003;69592;44.804;-0.550;2023-05-16T11:48:55;1.00;1.00;1.00
80289;PMS7003;69592;44.804;-0.550;2023-05-16T11:54:57;1.00;1.00;1.00
80289;PMS7003;69592;44.804;-0.550;2023-05-16T12:07:57;1.00;1.00;0.67
80289;PMS7003;69592;44.804;-0.550;2023-05-16T12:10:29;1.00;1.00;1.00
80289;PMS7003;69592;44.804;-0.550;2023-05-16T12:12:55;2.67;1.00;1.00
80289;PMS7003;69592;44.804;-0.550;2023-05-16T12:15:21;2.00;1.00;1.00
80289;PMS7003;69592;44.804;-0.550;2023-05-16T12:17:46;1.00;0.00;0.00
80289;PMS7003;69592;44.804;-0.550;2023-05-16T12:20:12;1.00;1.00;1.00
80289;PMS7003;69592;44.804;-0.550;2023-05-16T12:22:40;1.00;1.00;1.00
80289;PMS7003;69592;44.804;-0.550;2023-05-16T12:25:26;1.00;1.00;1.00
80289;PMS7003;69592;44.804;-0.550;2023-05-16T12:27:54;2.00;1.00;1.00
80289;PMS7003;69592;44.804;-0.550;2023-05-16T12:30:21;1.00;1.00;1.00
80289;PMS7003;69592;44.804;-0.550;2023-05-16T12:33:07;1.67;1.67;1.00
80289;PMS7003;69592;44.804;-0.550;2023-05-16T12:35:38;0.00;0.00;0.00
80289;PMS7003;69592;44.804;-0.550;2023-05-16T12:38:10;1.00;1.00;0.67
80289;PMS7003;69592;44.804;-0.550;2023-05-16T12:40:37;2.33;1.00;1.00
80289;PMS7003;69592;44.804;-0.550;2023-05-16T12:43:11;1.00;1.00;1.00
80289;PMS7003;69592;44.804;-0.550;2023-05-16T12:45:53;1.00;1.00;1.00
80289;PMS7003;69592;44.804;-0.550;2023-05-16T12:48:21;1.00;1.00;1.00
80289;PMS7003;69592;44.804;-0.550;2023-05-16T12:50:53;2.00;2.00;1.67
80289;PMS7003;69592;44.804;-0.550;2023-05-16T12:53:19;1.00;1.00;1.00
80289;PMS7003;69592;44.804;-0.550;2023-05-16T12:55:44;1.00;1.00;0.67
80289;PMS7003;69592;44.804;-0.550;2023-05-16T12:58:10;2.33;1.00;0.00
80289;PMS7003;69592;44.804;-0.550;2023-05-16T13:00:36;1.00;1.00;0.33
80289;PMS7003;69592;44.804;-0.550;2023-05-16T13:03:03;2.00;1.00;1.00
80289;PMS7003;69592;44.804;-0.550;2023-05-16T13:05:29;1.00;1.00;1.00
80289;PMS7003;69592;44.804;-0.550;2023-05-16T13:07:55;1.00;1.00;0.67
80289;PMS7003;69592;44.804;-0.550;2023-05-16T13:10:21;2.00;1.00;0.00
80289;PMS7003;69592;44.804;-0.550;2023-05-16T13:12:47;0.33;0.33;0.33
80289;PMS7003;69592;44.804;-0.550;2023-05-16T13:15:12;0.67;0.67;0.00
80289;PMS7003;69592;44.804;-0.550;2023-05-16T13:17:38;0.67;0.67;0.33
80289;PMS7003;69592;44.804;-0.550;2023-05-16T13:20:07;2.00;0.67;0.67
80289;PMS7003;69592;44.804;-0.550;2023-05-16T13:22:37;0.00;0.00;0.00
80289;PMS7003;69592;44.804;-0.550;2023-05-16T13:25:03;1.00;0.00;0.00
80289;PMS7003;69592;44.804;-0.550;2023-05-16T13:27:29;2.00;1.00;0.67
80289;PMS7003;69592;44.804;-0.550;2023-05-16T13:29:55;0.00;0.00;0.00
80289;PMS7003;69592;44.804;-0.550;2023-05-16T13:32:21;1.00;1.00;1.00
80289;PMS7003;69592;44.804;-0.550;2023-05-16T13:34:47;0.33;0.33;0.33
80289;PMS7003;69592;44.804;-0.550;2023-05-16T13:37:15;0.00;0.00;0.00
80289;PMS7003;69592;44.804;-0.550;2023-05-16T13:39:47;0.00;0.00;0.00
80289;PMS7003;69592;44.804;-0.550;2023-05-16T13:42:13;3.00;1.00;1.00
80289;PMS7003;69592;44.804;-0.550;2023-05-16T13:44:40;0.00;0.00;0.00
80289;PMS7003;69592;44.804;-0.550;2023-05-16T13:47:06;1.00;1.00;1.00
80289;PMS7003;69592;44.804;-0.550;2023-05-16T13:49:35;1.00;1.00;1.00
80289;PMS7003;69592;44.804;-0.550;2023-05-16T13:52:01;1.00;1.00;0.67
80289;PMS7003;69592;44.804;-0.550;2023-05-16T13:54:28;0.33;0.33;0.00
80289;PMS7003;69592;44.804;-0.550;2023-05-16T13:56:54;1.33;1.33;1.00
80289;PMS7003;69592;44.804;-0.550;2023-05-16T13:59:20;1.00;1.00;0.00
80289;PMS7003;69592;44.804;-0.550;2023-05-16T14:01:45;1.00;1.00;1.00
80289;PMS7003;69592;44.804;-0.550;2023-05-16T14:04:10;0.33;0.33;0.33
80289;PMS7003;69592;44.804;-0.550;2023-05-16T14:06:36;0.00;0.00;0.00
80289;PMS7003;69592;44.804;-0.550;2023-05-16T14:09:03;0.00;0.00;0.00
80289;PMS7003;69592;44.804;-0.550;2023-05-16T14:11:30;1.00;1.00;1.00
80289;PMS7003;69592;44.804;-0.550;2023-05-16T14:13:56;1.00;1.00;0.00
80289;PMS7003;69592;44.804;-0.550;2023-05-16T14:16:22;0.33;0.33;0.33
80289;PMS7003;69592;44.804;-0.550;2023-05-16T14:18:49;0.67;0.67;0.00
80289;PMS7003;69592;44.804;-0.550;2023-05-16T14:21:18;0.00;0.00;0.00
80289;PMS7003;69592;44.804;-0.550;2023-05-16T14:23:49;1.33;0.33;0.00
80289;PMS7003;69592;44.804;-0.550;2023-05-16T14:26:15;0.67;0.00;0.00
80289;PMS7003;69592;44.804;-0.550;2023-05-16T14:28:42;0.00;0.00;0.00
80289;PMS7003;69592;44.804;-0.550;2023-05-16T14:31:11;1.00;0.00;0.00
80289;PMS7003;69592;44.804;-0.550;2023-05-16T14:33:37;1.00;1.00;1.00
80289;PMS7003;69592;44.804;-0.550;2023-05-16T14:36:05;0.67;0.00;0.00
80289;PMS7003;69592;44.804;-0.550;2023-05-16T14:38:31;0.00;0.00;0.00
80289;PMS7003;69592;44.804;-0.550;2023-05-16T14:40:58;0.00;0.00;0.00
80289;PMS7003;69592;44.804;-0.550;2023-05-16T14:43:24;2.00;0.00;0.00
80289;PMS7003;69592;44.804;-0.550;2023-05-16T14:45:57;0.00;0.00;0.00
80289;PMS7003;69592;44.804;-0.550;2023-05-16T14:48:34;1.00;1.00;0.33
80289;PMS7003;69592;44.804;-0.550;2023-05-16T14:51:00;1.00;1.00;1.00
80289;PMS7003;69592;44.804;-0.550;2023-05-16T14:53:26;0.00;0.00;0.00
80289;PMS7003;69592;44.804;-0.550;2023-05-16T14:55:53;0.33;0.33;0.00
80289;PMS7003;69592;44.804;-0.550;2023-05-16T14:58:23;0.00;0.00;0.00
80289;PMS7003;69592;44.804;-0.550;2023-05-16T15:00:49;0.00;0.00;0.00
80289;PMS7003;69592;44.804;-0.550;2023-05-16T15:03:15;0.00;0.00;0.00
80289;PMS7003;69592;44.804;-0.550;2023-05-16T15:05:41;2.67;0.33;0.00